Sunday, January 20, 2019, 7:33 AM GMT
Back to Local

CYCX, Gagetown Can-Mil

Location: , , Canada Lat: 45.833
Local Time: 7:33 AM GMT ( 7:33 GMT) Lon: -66.433
Time Zone: GMT Elev: 167 ft

Show me the last for .
Show Decoded

2019-01-20 07:03 METAR CYCX 200703Z AUTO 05006KT 1 3/4SM -SN OVC016 M17/M21 A3036 =
2019-01-20 07:00 METAR CYCX 200700Z AUTO 05007KT 1 1/4SM -SN OVC016 M17/M21 A3036 RMK SLP286 =
2019-01-20 06:39 METAR CYCX 200639Z AUTO 05006KT 1 1/4SM -SN OVC016 M18/M21 A3037 =
2019-01-20 06:23 METAR CYCX 200623Z AUTO 04005KT 020V080 2 1/2SM -SN OVC018 M18/M21 A3037 =
2019-01-20 06:00 METAR CYCX 200600Z AUTO 03005KT 6SM -SN OVC018 M18/M21 A3038 RMK SLP292 =
2019-01-20 05:58 METAR CYCX 200558Z AUTO 03006KT 7SM -SN OVC018 M18/M21 A3038 =
2019-01-20 05:44 METAR CYCX 200544Z AUTO 03005KT 6SM OVC018 M18/M21 A3039 =
2019-01-20 05:42 METAR CYCX 200542Z AUTO 02005KT 2 1/2SM OVC018 M18/M21 A3039 RMK VSBY VRBL
                 2.5V9.0 =
2019-01-20 05:41 METAR CYCX 200541Z AUTO 02005KT 2 1/2SM VV014 M18/M21 A3039 RMK VSBY VRBL
                 2.5V9.0 =
2019-01-20 05:00 METAR CYCX 200500Z AUTO 36003KT 2SM -SN VV012 M18/M22 A3041 RMK SLP303 =
2019-01-20 04:59 METAR CYCX 200459Z AUTO 01003KT 2SM -SN VV012 M18/M22 A3041 =
2019-01-20 04:29 METAR CYCX 200429Z AUTO 01006KT 1 1/4SM -SN VV012 M18/M22 A3042 =
2019-01-20 04:23 METAR CYCX 200423Z AUTO 01006KT 1 3/4SM -SN VV012 M18/M22 A3042 =
2019-01-20 04:00 METAR CYCX 200400Z AUTO 01004KT 1 1/4SM -SN VV015 M18/M22 A3043 RMK SLP309 =
2019-01-20 03:53 METAR CYCX 200353Z AUTO 01004KT 1 1/4SM -SN VV015 M18/M23 A3043 =
2019-01-20 03:28 METAR CYCX 200328Z AUTO 36004KT 2 1/2SM -SN OVC021 M18/M23 A3043 =
2019-01-20 03:15 METAR CYCX 200315Z AUTO 01002KT 3SM -SN OVC024 M18/M24 A3042 =
2019-01-20 03:12 METAR CYCX 200312Z AUTO 36002KT 3SM -SN OVC026 M18/M24 A3042 =
2019-01-20 03:00 METAR CYCX 200300Z AUTO 36003KT 5SM OVC026 M18/M24 A3042 RMK SLP307 =
2019-01-20 02:00 METAR CYCX 200200Z AUTO 01003KT 9SM OVC042 OVC086 OVC097 M18/M26 A3043 RMK
                 SLP309 =
2019-01-20 01:00 METAR CYCX 200100Z AUTO 34005KT 9SM OVC058 M17/M25 A3042 RMK SLP308 =
2019-01-20 00:00 METAR CYCX 200000Z AUTO 30007KT 9SM OVC068 M17/M25 A3043 RMK SLP310 =
2019-01-19 23:00 METAR CYCX 192300Z AUTO 29007KT 9SM OVC079 M16/M25 A3043 RMK SLP310 =
2019-01-19 22:00 METAR CYCX 192200Z AUTO 32004KT 9SM FEW094 M16/M25 A3040 RMK SLP299 =
2019-01-19 21:00 METAR CYCX 192100Z AUTO 35005KT 9SM FEW060 FEW086 M16/M27 A3037 RMK SLP287 =
2019-01-19 20:00 METAR CYCX 192000Z AUTO 01004KT 340V050 9SM CLR M15/M27 A3034 RMK SLP277 =
2019-01-19 19:00 METAR CYCX 191900Z AUTO 29007KT 270V340 9SM FEW050 FEW081 M15/M26 A3034 RMK
                 SLP277 =
2019-01-19 18:00 METAR CYCX 191800Z AUTO 28008KT 9SM FEW069 FEW087 FEW096 M15/M27 A3033 RMK
                 SLP276 =
2019-01-19 17:00 METAR CYCX 191700Z AUTO 28011KT 9SM FEW091 M16/M27 A3034 RMK SLP279 =
2019-01-19 16:00 METAR CYCX 191600Z AUTO 29009KT 9SM FEW091 M16/M27 A3034 RMK SLP280 =
2019-01-19 15:00 METAR CYCX 191500Z AUTO 33009KT 9SM CLR M16/M27 A3035 RMK SLP280 =
2019-01-19 14:00 METAR CYCX 191400Z AUTO 36009KT 9SM CLR M17/M28 A3032 RMK SLP271 =
2019-01-19 13:00 METAR CYCX 191300Z AUTO 32007KT 9SM CLR M17/M30 A3029 RMK SLP262 =
2019-01-19 12:00 METAR CYCX 191200Z AUTO 32004KT 9SM FEW077 FEW091 M17/M22 A3025 RMK SLP249 =
2019-01-19 11:00 METAR CYCX 191100Z AUTO 34010G15KT 9SM FEW077 M15/M20 A3021 RMK SLP236 =
2019-01-19 10:00 METAR CYCX 191000Z AUTO 32012KT 9SM SCT031 SCT090 M13/M18 A3017 RMK SLP222 =
2019-01-19 09:00 METAR CYCX 190900Z AUTO 29014KT 9SM FEW097 M10/M18 A3012 RMK SLP203 =
2019-01-19 08:00 METAR CYCX 190800Z AUTO 27010G15KT 9SM FEW083 M09/M17 A3008 RMK SLP190 =

Support USWX by starting your Amazon purchase here.